Time;durP1;ratioP1;P1;durP2;ratioP2;P2;SDS_P1;SDS_P2;PMS_P1;PMS_P2;Temp;Humidity;BMP_temperature;BMP_pressure;BME280_temperature;BME280_humidity;BME280_pressure;Samples;Min_cycle;Max_cycle;Signal;HPM_P1;HPM_P2
2021/09/10 00:01:23;;;;;;;31.92;21.38;;;;;;;22.53;100.00;101100.84;4980810;28;20074;-65
2021/09/10 00:03:49;;;;;;;33.03;20.48;;;;;;;22.49;99.45;101111.13;4969622;28;20436;-63
2021/09/10 00:06:16;;;;;;;33.45;20.20;;;;;;;;;;4978959;28;20407;-63
2021/09/10 00:08:42;;;;;;;31.38;20.33;;;;;;;22.41;100.00;101108.75;4974307;28;20046;-63
2021/09/10 00:11:09;;;;;;;35.05;21.77;;;;;;;22.37;100.00;101107.53;4983703;28;20610;-62
2021/09/10 00:13:35;;;;;;;31.65;21.20;;;;;;;22.30;99.98;101112.91;4977049;28;20165;-63
2021/09/10 00:16:02;;;;;;;32.95;21.60;;;;;;;22.28;100.00;101114.19;4979221;28;20630;-63
2021/09/10 00:18:29;;;;;;;33.50;21.55;;;;;;;22.24;100.00;101105.78;4975975;28;20078;-63
2021/09/10 00:20:55;;;;;;;30.27;20.50;;;;;;;22.22;100.00;101115.84;4974527;28;20146;-63
2021/09/10 00:23:22;;;;;;;34.22;21.63;;;;;;;22.19;100.00;101104.75;4982128;28;20162;-63
2021/09/10 00:25:48;;;;;;;30.08;21.35;;;;;;;22.17;100.00;101104.16;4976767;28;20054;-63
2021/09/10 00:28:15;;;;;;;28.80;21.15;;;;;;;22.09;100.00;101107.91;4981410;28;20057;-63
2021/09/10 00:30:41;;;;;;;32.42;20.95;;;;;;;22.04;100.00;101103.22;4971989;28;20051;-63
2021/09/10 00:33:08;;;;;;;30.75;20.17;;;;;;;22.22;100.00;101107.00;4976338;28;20082;-63
2021/09/10 00:35:34;;;;;;;33.30;21.55;;;;;;;22.25;100.00;101111.97;4983718;28;20137;-63
2021/09/10 00:38:01;;;;;;;33.85;22.10;;;;;;;22.15;100.00;101108.91;4974479;28;20169;-63
2021/09/10 00:40:27;;;;;;;29.55;21.45;;;;;;;22.06;100.00;101105.69;4976710;28;20053;-63
2021/09/10 00:42:54;;;;;;;34.13;21.25;;;;;;;21.99;100.00;101113.72;4973852;28;20086;-63
2021/09/10 00:45:20;;;;;;;32.05;22.48;;;;;;;21.98;100.00;101105.94;4976375;28;20082;-63
2021/09/10 00:47:47;;;;;;;39.25;23.58;;;;;;;21.95;100.00;101103.69;4973908;28;20101;-63
2021/09/10 00:50:13;;;;;;;35.65;22.30;;;;;;;21.92;100.00;101100.41;4977756;28;20094;-62
2021/09/10 00:52:40;;;;;;;35.17;21.85;;;;;;;22.16;100.00;101108.69;4983617;28;20529;-62
2021/09/10 00:55:07;;;;;;;28.75;20.27;;;;;;;22.35;99.52;101108.81;4976354;28;20054;-63
2021/09/10 00:57:33;;;;;;;35.88;22.92;;;;;;;22.20;99.70;101107.22;4982866;28;20069;-63
2021/09/10 01:00:00;;;;;;;41.05;25.50;;;;;;;22.18;100.00;101106.63;4969332;28;20489;-63
2021/09/10 01:02:26;;;;;;;37.45;24.60;;;;;;;22.03;100.00;101104.28;4981828;28;20110;-63
2021/09/10 01:04:54;;;;;;;35.35;23.25;;;;;;;22.03;100.00;101096.25;4977590;28;20050;-63
2021/09/10 01:07:23;;;;;;;32.78;23.40;;;;;;;22.09;100.00;101106.06;4976058;28;20089;-63
2021/09/10 01:09:51;;;;;;;31.98;22.70;;;;;;;22.07;100.00;101102.81;4981026;28;20161;-64
2021/09/10 01:12:17;;;;;;;36.95;23.15;;;;;;;22.03;100.00;101103.44;4972512;28;20166;-63
2021/09/10 01:14:44;;;;;;;33.33;22.65;;;;;;;22.07;100.00;101107.31;4974705;28;20141;-63
2021/09/10 01:17:11;;;;;;;34.35;22.35;;;;;;;21.89;100.00;101113.38;4976452;28;20585;-63
2021/09/10 01:19:38;;;;;;;34.78;24.05;;;;;;;21.96;100.00;101111.50;4978577;28;20145;-63
2021/09/10 01:22:06;;;;;;;33.40;22.35;;;;;;;21.87;100.00;101110.91;4975884;28;20108;-63
2021/09/10 01:24:37;;;;;;;34.28;23.00;;;;;;;21.95;100.00;101109.03;4978264;28;20074;-63
2021/09/10 01:27:05;;;;;;;38.88;24.30;;;;;;;21.91;100.00;101108.63;4976917;28;20050;-63
2021/09/10 01:29:33;;;;;;;34.67;22.70;;;;;;;21.86;100.00;101111.16;4968766;28;20081;-63
2021/09/10 01:32:00;;;;;;;37.35;23.08;;;;;;;21.76;100.00;101108.09;4979753;28;20518;-63
2021/09/10 01:34:26;;;;;;;38.67;23.35;;;;;;;21.80;100.00;101104.00;4970406;28;20122;-63
2021/09/10 01:36:53;;;;;;;33.35;23.23;;;;;;;21.82;100.00;101108.09;4978587;28;20087;-63
2021/09/10 01:39:20;;;;;;;33.33;21.75;;;;;;;21.83;100.00;101103.56;4967165;28;20081;-63
2021/09/10 01:41:46;;;;;;;35.42;22.17;;;;;;;21.80;100.00;101099.47;4970651;28;20077;-63
2021/09/10 01:44:12;;;;;;;35.55;23.70;;;;;;;21.82;100.00;101101.94;4977923;28;20082;-63
2021/09/10 01:46:40;;;;;;;34.88;22.85;;;;;;;21.82;100.00;101101.94;4976554;28;20046;-63
2021/09/10 01:49:07;;;;;;;;;;;;;;;21.89;100.00;101100.03;4979867;28;20092;-63
2021/09/10 01:51:34;;;;;;;41.00;28.15;;;;;;;21.87;100.00;101100.22;4972162;28;20012;-63
2021/09/10 01:54:01;;;;;;;38.08;26.10;;;;;;;21.83;100.00;101108.91;4977476;28;20676;-63
2021/09/10 01:56:28;;;;;;;40.63;24.60;;;;;;;21.62;100.00;101105.53;4971299;28;20102;-63
2021/09/10 01:58:55;;;;;;;37.60;22.35;;;;;;;21.48;100.00;101094.09;4979093;28;20054;-63
2021/09/10 02:01:26;;;;;;;31.27;20.85;;;;;;;21.53;100.00;101098.78;4981172;28;20140;-63
2021/09/10 02:03:53;;;;;;;28.45;18.42;;;;;;;21.34;100.00;101100.47;4973673;28;20275;-63
2021/09/10 02:06:20;;;;;;;28.20;19.67;;;;;;;21.26;100.00;101096.19;4979687;28;20731;-63
2021/09/10 02:08:46;;;;;;;32.08;20.33;;;;;;;21.31;100.00;101098.22;4970380;28;20136;-63
2021/09/10 02:11:13;;;;;;;29.65;20.13;;;;;;;21.40;100.00;101096.13;4976086;28;20185;-63
2021/09/10 02:13:40;;;;;;;32.17;20.67;;;;;;;21.42;100.00;101100.22;4972886;28;20084;-63
2021/09/10 02:16:07;;;;;;;31.20;21.30;;;;;;;21.40;100.00;101096.94;4978503;28;20074;-63
2021/09/10 02:18:34;;;;;;;31.02;20.65;;;;;;;21.41;100.00;101093.25;4979136;28;20054;-63
2021/09/10 02:21:01;;;;;;;29.95;22.15;;;;;;;21.21;100.00;101100.50;4972562;28;20173;-63
2021/09/10 02:23:28;;;;;;;35.40;20.55;;;;;;;21.16;100.00;101105.66;4974467;28;20138;-63
2021/09/10 02:25:55;;;;;;;27.20;18.45;;;;;;;21.08;100.00;101107.50;4971293;28;20132;-63
2021/09/10 02:28:21;;;;;;;27.65;18.48;;;;;;;21.00;100.00;101106.94;4980474;28;20130;-63
2021/09/10 02:30:48;;;;;;;24.85;17.55;;;;;;;21.04;100.00;101110.81;4970685;28;20476;-63
2021/09/10 02:33:14;;;;;;;22.80;16.40;;;;;;;20.93;100.00;101106.94;4980161;28;20145;-63
2021/09/10 02:35:41;;;;;;;24.70;17.42;;;;;;;20.77;100.00;101099.38;4978079;28;20153;-63
2021/09/10 02:38:08;;;;;;;24.80;17.63;;;;;;;20.65;100.00;101104.50;4967544;28;20858;-63
2021/09/10 02:40:35;;;;;;;29.60;18.13;;;;;;;20.59;100.00;101099.97;4978684;28;20475;-63
2021/09/10 02:43:02;;;;;;;29.23;19.05;;;;;;;20.52;100.00;101099.97;4974556;28;20486;-63
2021/09/10 02:45:28;;;;;;;31.30;18.15;;;;;;;20.46;100.00;101093.59;4977206;28;20054;-64
2021/09/10 02:47:55;;;;;;;25.00;17.10;;;;;;;20.44;100.00;101092.19;4973708;28;20056;-64
2021/09/10 02:50:21;;;;;;;26.30;18.33;;;;;;;20.38;100.00;101093.00;4972832;28;20117;-64
2021/09/10 02:52:50;;;;;;;28.77;17.40;;;;;;;20.30;100.00;101097.50;4973734;28;20109;-64
2021/09/10 02:55:17;;;;;;;27.77;17.98;;;;;;;20.24;100.00;101085.00;4968870;28;20440;-64
2021/09/10 02:57:44;;;;;;;29.15;18.92;;;;;;;20.17;100.00;101086.84;4977392;28;20569;-64
2021/09/10 03:00:11;;;;;;;29.02;18.92;;;;;;;20.12;100.00;101090.13;4971494;28;20058;-64
2021/09/10 03:02:38;;;;;;;30.40;19.10;;;;;;;20.08;100.00;101096.88;4977962;28;20145;-63
2021/09/10 03:05:06;;;;;;;29.30;18.83;;;;;;;20.04;100.00;101089.50;4967018;28;20141;-63
2021/09/10 03:07:33;;;;;;;27.00;18.98;;;;;;;20.11;100.00;101096.47;4975666;28;20084;-62
2021/09/10 03:09:59;;;;;;;27.10;17.55;;;;;;;20.58;100.00;101090.34;4975376;28;20519;-63
2021/09/10 03:12:26;;;;;;;27.17;18.23;;;;;;;20.63;100.00;101094.06;4979125;28;20080;-63
2021/09/10 03:14:52;;;;;;;29.27;18.55;;;;;;;20.32;100.00;101091.97;4979537;28;20677;-63
2021/09/10 03:17:19;;;;;;;27.88;18.88;;;;;;;20.10;100.00;101089.50;4973417;28;20054;-63
2021/09/10 03:19:45;;;;;;;25.02;18.23;;;;;;;19.99;100.00;101090.09;4970746;28;20222;-63
2021/09/10 03:22:12;;;;;;;27.23;18.88;;;;;;;19.92;100.00;101087.44;4970502;28;20149;-63
2021/09/10 03:24:38;;;;;;;25.48;18.58;;;;;;;19.89;100.00;101085.16;4983862;28;20456;-64
2021/09/10 03:27:05;;;;;;;27.80;18.58;;;;;;;19.94;100.00;101085.38;4977538;28;20136;-64
2021/09/10 03:29:31;;;;;;;28.30;20.13;;;;;;;20.00;100.00;101090.94;4981952;28;20061;-63
2021/09/10 03:31:58;;;;;;;34.85;23.35;;;;;;;19.85;100.00;101080.44;4977590;28;20566;-64
2021/09/10 03:34:28;;;;;;;23.45;17.02;;;;;;;19.80;100.00;101082.88;4972888;28;20065;-63
2021/09/10 03:36:55;;;;;;;24.50;16.65;;;;;;;19.78;100.00;101082.25;4982916;28;20578;-63
2021/09/10 03:39:21;;;;;;;24.42;16.88;;;;;;;19.84;100.00;101087.63;4975520;28;20086;-64
2021/09/10 03:41:48;;;;;;;22.27;16.17;;;;;;;20.08;100.00;101088.88;4981753;28;20141;-63
2021/09/10 03:44:14;;;;;;;23.38;16.10;;;;;;;19.88;100.00;101090.69;4975018;28;20077;-63
2021/09/10 03:46:41;;;;;;;22.33;15.13;;;;;;;19.70;100.00;101088.56;4978927;28;20173;-63
2021/09/10 03:49:07;;;;;;;21.42;15.27;;;;;;;19.69;100.00;101092.25;4977851;28;20058;-63
2021/09/10 03:51:34;;;;;;;22.25;14.40;;;;;;;19.96;100.00;101095.84;4972465;28;20570;-63
2021/09/10 03:54:01;;;;;;;19.63;13.82;;;;;;;19.98;100.00;101091.13;4981005;28;20118;-63
2021/09/10 03:56:27;;;;;;;20.55;14.85;;;;;;;19.81;100.00;101087.19;4975019;28;20078;-63
2021/09/10 03:58:53;;;;;;;21.48;13.98;;;;;;;19.80;100.00;101085.53;4983359;28;20554;-63
2021/09/10 04:01:20;;;;;;;17.58;13.25;;;;;;;19.86;100.00;101090.91;4970756;28;20146;-63
2021/09/10 04:03:47;;;;;;;17.13;13.68;;;;;;;19.95;100.00;101091.50;4980260;28;20050;-63
2021/09/10 04:06:16;;;;;;;16.80;13.00;;;;;;;19.84;100.00;101092.94;4982205;28;20216;-63
2021/09/10 04:08:42;;;;;;;18.58;13.57;;;;;;;19.68;100.00;101090.59;4978221;28;20058;-64
2021/09/10 04:11:09;;;;;;;17.88;13.10;;;;;;;19.56;100.00;101093.00;4982348;28;20709;-63
2021/09/10 04:13:35;;;;;;;21.30;14.52;;;;;;;19.64;100.00;101089.34;4972760;28;20092;-63
2021/09/10 04:16:02;;;;;;;18.33;13.57;;;;;;;19.45;100.00;101094.41;4974165;28;20062;-63
2021/09/10 04:18:29;;;;;;;19.52;13.52;;;;;;;19.56;100.00;101095.66;4974322;28;20055;-63
2021/09/10 04:20:55;;;;;;;19.90;12.90;;;;;;;19.44;100.00;101095.41;4979450;28;20145;-63
2021/09/10 04:23:22;;;;;;;21.15;13.27;;;;;;;19.64;100.00;101100.84;4979055;28;20158;-63
2021/09/10 04:25:48;;;;;;;20.42;13.88;;;;;;;19.71;100.00;101092.88;4971059;28;20051;-63
2021/09/10 04:28:15;;;;;;;21.00;13.95;;;;;;;19.50;100.00;101099.97;4976010;28;20142;-63
2021/09/10 04:30:41;;;;;;;21.45;14.63;;;;;;;19.31;100.00;101101.50;4968481;28;20079;-63
2021/09/10 04:33:08;;;;;;;21.40;15.23;;;;;;;19.56;100.00;101093.84;4979391;28;20054;-63
2021/09/10 04:35:34;;;;;;;23.33;16.70;;;;;;;19.54;100.00;101098.56;4972354;28;20081;-64
2021/09/10 04:38:01;;;;;;;20.58;15.18;;;;;;;19.45;100.00;101099.72;4979652;28;20074;-63
2021/09/10 04:40:27;;;;;;;26.08;15.52;;;;;;;19.39;100.00;101102.38;4975729;28;20092;-63
2021/09/10 04:42:54;;;;;;;22.45;15.55;;;;;;;19.35;100.00;101104.59;4970760;28;20142;-63
2021/09/10 04:45:22;;;;;;;18.75;13.23;;;;;;;19.36;100.00;101103.56;4972918;28;20085;-63
2021/09/10 04:47:48;;;;;;;;;;;;;;;19.30;100.00;101104.38;4975044;28;20132;-63
2021/09/10 04:50:15;;;;;;;21.98;14.75;;;;;;;19.35;100.00;101102.75;4976622;28;20349;-63
2021/09/10 04:52:42;;;;;;;20.30;14.95;;;;;;;19.35;100.00;101101.94;4973892;28;20093;-63
2021/09/10 04:55:09;;;;;;;21.70;13.68;;;;;;;19.39;100.00;101108.50;4976673;28;20463;-63
2021/09/10 04:57:36;;;;;;;20.65;13.30;;;;;;;19.50;100.00;101101.78;4971860;28;20146;-64
2021/09/10 05:00:03;;;;;;;23.20;14.48;;;;;;;19.29;100.00;101103.56;4971329;28;20054;-62
2021/09/10 05:02:30;;;;;;;20.52;13.88;;;;;;;19.26;100.00;101106.59;4978730;28;20065;-62
2021/09/10 05:04:57;;;;;;;21.33;14.57;;;;;;;19.23;100.00;101114.13;4972365;28;20105;-63
2021/09/10 05:07:23;;;;;;;23.73;14.50;;;;;;;19.24;100.00;101099.84;4978820;28;20475;-64
2021/09/10 05:09:50;;;;;;;23.08;13.93;;;;;;;19.09;100.00;101106.09;4971333;28;20145;-64
2021/09/10 05:12:16;;;;;;;19.35;14.02;;;;;;;19.13;100.00;101107.34;4969012;28;20086;-64
2021/09/10 05:14:43;;;;;;;19.13;12.75;;;;;;;19.14;100.00;101103.66;4978798;28;20074;-64
2021/09/10 05:17:10;;;;;;;24.10;13.18;;;;;;;19.04;100.00;101116.50;4970425;28;21624;-64
2021/09/10 05:19:37;;;;;;;18.63;13.57;;;;;;;19.08;100.00;101109.78;4979139;28;20594;-64
2021/09/10 05:22:03;;;;;;;24.05;13.98;;;;;;;19.24;100.00;101121.91;4970076;28;20050;-64
2021/09/10 05:24:30;;;;;;;22.15;13.32;;;;;;;19.30;100.00;101121.13;4974681;28;20504;-64
2021/09/10 05:26:56;;;;;;;20.45;12.65;;;;;;;19.14;100.00;101122.28;4968807;28;20118;-64
2021/09/10 05:29:23;;;;;;;20.67;13.00;;;;;;;19.15;100.00;101110.63;4978358;28;20137;-64
2021/09/10 05:31:49;;;;;;;18.92;13.27;;;;;;;19.16;100.00;101114.94;4975859;28;20491;-64
2021/09/10 05:34:16;;;;;;;22.15;13.50;;;;;;;19.24;100.00;101121.13;4972986;28;20145;-64
2021/09/10 05:36:42;;;;;;;18.48;13.23;;;;;;;19.09;100.00;101114.09;4979172;28;20057;-64
2021/09/10 05:39:09;;;;;;;17.63;13.20;;;;;;;19.12;100.00;101118.19;4966572;28;20240;-64
2021/09/10 05:41:36;;;;;;;19.77;13.07;;;;;;;19.10;100.00;101122.88;4970524;28;20046;-64
2021/09/10 05:44:02;;;;;;;18.38;13.20;;;;;;;19.21;100.00;101126.81;4972647;28;20540;-64
2021/09/10 05:46:29;;;;;;;18.75;13.48;;;;;;;19.16;100.00;101130.88;4976827;28;20081;-63
2021/09/10 05:48:55;;;;;;;20.30;13.25;;;;;;;19.29;100.00;101132.81;4977829;28;20052;-64
2021/09/10 05:51:22;;;;;;;24.92;14.35;;;;;;;19.71;100.00;101136.28;4969930;28;20849;-64
2021/09/10 05:53:48;;;;;;;29.30;17.75;;;;;;;19.84;100.00;101130.19;4971409;28;20351;-64
2021/09/10 05:56:15;;;;;;;22.83;15.68;;;;;;;19.94;100.00;101141.28;4968877;28;20141;-64
2021/09/10 05:58:41;;;;;;;24.33;13.00;;;;;;;20.18;100.00;101139.09;4975185;28;20497;-64
2021/09/10 06:01:08;;;;;;;26.60;17.58;;;;;;;20.19;100.00;101140.75;4971677;28;20050;-64
2021/09/10 06:03:34;;;;;;;24.73;17.02;;;;;;;20.42;100.00;101144.84;4980294;28;20058;-64
2021/09/10 06:06:02;;;;;;;26.85;16.65;;;;;;;20.31;100.00;101144.44;4974130;28;20150;-64
2021/09/10 06:08:29;;;;;;;30.55;19.02;;;;;;;20.32;100.00;101145.25;4965669;28;20498;-64
2021/09/10 06:10:55;;;;;;;27.58;19.10;;;;;;;20.63;100.00;101147.34;4977424;28;20483;-64
2021/09/10 06:13:21;;;;;;;26.60;17.55;;;;;;;20.76;100.00;101148.38;4972785;28;20598;-64
2021/09/10 06:15:48;;;;;;;25.17;17.45;;;;;;;20.90;100.00;101148.16;4977992;28;20153;-64
2021/09/10 06:18:14;;;;;;;31.75;19.52;;;;;;;20.82;100.00;101156.38;4973924;28;20758;-64
2021/09/10 06:20:41;;;;;;;32.28;20.52;;;;;;;20.91;100.00;101156.97;4976082;28;20141;-64
2021/09/10 06:23:07;;;;;;;30.77;19.48;;;;;;;20.58;100.00;101164.94;4972125;28;20173;-64
2021/09/10 06:25:34;;;;;;;32.45;19.92;;;;;;;20.60;100.00;101153.13;4973510;28;20483;-65
2021/09/10 06:28:00;;;;;;;34.65;20.80;;;;;;;20.80;100.00;101154.97;4977770;28;20145;-64
2021/09/10 06:30:27;;;;;;;36.33;20.63;;;;;;;20.73;100.00;101158.41;4973104;28;20396;-64
2021/09/10 06:32:53;;;;;;;29.42;19.13;;;;;;;20.91;100.00;101164.97;4973582;28;20133;-64
2021/09/10 06:35:20;;;;;;;34.10;19.67;;;;;;;20.95;100.00;101171.53;4965201;28;20057;-64
2021/09/10 06:37:46;;;;;;;32.78;19.13;;;;;;;20.93;100.00;101170.91;4972011;28;20838;-64
2021/09/10 06:40:13;;;;;;;37.42;20.13;;;;;;;20.96;100.00;101169.72;4978452;28;20148;-64
2021/09/10 06:42:41;;;;;;;30.42;19.33;;;;;;;20.77;100.00;101169.50;4974260;28;20054;-64
2021/09/10 06:45:10;;;;;;;30.35;19.13;;;;;;;20.98;100.00;101178.31;4977467;28;20463;-64
2021/09/10 06:47:37;;;;;;;36.92;21.48;;;;;;;21.01;100.00;101175.22;4965064;28;20081;-65
2021/09/10 06:50:09;;;;;;;34.55;20.75;;;;;;;20.72;100.00;101178.13;4974540;28;20078;-65
2021/09/10 06:52:40;;;;;;;34.10;19.58;;;;;;;21.35;100.00;101178.69;4972282;28;20583;-64
2021/09/10 06:55:07;;;;;;;34.63;21.42;;;;;;;21.37;100.00;101179.28;4980050;28;20521;-64
2021/09/10 06:57:33;;;;;;;40.88;22.88;;;;;;;21.38;100.00;101189.72;4979855;28;20435;-64
2021/09/10 07:00:01;;;;;;;40.35;23.60;;;;;;;21.29;100.00;101191.00;4970576;28;20061;-64
2021/09/10 07:02:27;;;;;;;45.03;23.27;;;;;;;21.08;100.00;101184.84;4975432;28;20105;-66
2021/09/10 07:04:54;;;;;;;45.40;24.02;;;;;;;21.25;100.00;101184.44;4966804;28;20419;-64
2021/09/10 07:07:20;;;;;;;34.83;20.27;;;;;;;21.43;100.00;101175.78;4986848;28;20458;-65
2021/09/10 07:09:48;;;;;;;47.08;24.40;;;;;;;21.25;100.00;101182.59;4969808;28;20078;-64
2021/09/10 07:12:14;;;;;;;43.50;23.60;;;;;;;21.30;100.00;101181.94;4977393;28;20047;-65
2021/09/10 07:14:41;;;;;;;44.15;24.38;;;;;;;21.32;100.00;101194.03;4969483;28;20170;-65
2021/09/10 07:17:07;;;;;;;38.80;19.13;;;;;;;21.27;100.00;101187.72;4973971;28;20054;-65
2021/09/10 07:19:34;;;;;;;46.92;24.98;;;;;;;21.60;100.00;101190.34;4974575;28;20547;-65
2021/09/10 07:22:01;;;;;;;45.42;24.90;;;;;;;21.40;100.00;101190.34;4973204;28;20050;-64
2021/09/10 07:24:28;;;;;;;48.08;24.98;;;;;;;21.46;100.00;101188.72;4975039;28;20133;-65
2021/09/10 07:26:55;;;;;;;47.55;23.98;;;;;;;21.40;100.00;101187.66;4973232;28;20133;-64
2021/09/10 07:29:23;;;;;;;54.58;26.55;;;;;;;21.77;100.00;101197.84;4968667;28;20074;-65
2021/09/10 07:31:50;;;;;;;;;;;;;;;21.48;100.00;101197.31;4970337;28;20078;-65
2021/09/10 07:34:17;;;;;;;47.20;22.42;;;;;;;21.24;100.00;101196.94;4973708;28;20024;-64
2021/09/10 07:36:48;;;;;;;50.42;24.30;;;;;;;21.25;100.00;101192.44;4981123;28;20141;-64
2021/09/10 07:39:20;;;;;;;44.50;22.08;;;;;;;21.45;100.00;101189.75;4965606;28;20483;-64
2021/09/10 07:41:47;;;;;;;53.35;23.70;;;;;;;21.74;99.97;101188.44;4976740;28;20436;-64
2021/09/10 07:44:16;;;;;;;51.53;22.40;;;;;;;22.03;99.10;101194.25;4969281;28;20096;-64
2021/09/10 07:46:44;;;;;;;48.47;22.73;;;;;;;21.57;100.00;101196.06;4976306;28;20061;-64
2021/09/10 07:49:11;;;;;;;42.30;20.70;;;;;;;21.61;100.00;101207.97;4966828;28;20086;-65
2021/09/10 07:51:37;;;;;;;44.30;22.02;;;;;;;21.78;100.00;101205.66;4978491;28;20575;-64
2021/09/10 07:54:05;;;;;;;45.35;21.45;;;;;;;21.80;100.00;101200.94;4974122;28;20051;-65
2021/09/10 07:56:37;;;;;;;43.22;23.33;;;;;;;22.32;97.00;101200.91;4974310;28;20483;-64
2021/09/10 07:59:03;;;;;;;46.58;22.17;;;;;;;22.01;98.33;101209.66;4971155;28;20050;-63
2021/09/10 08:01:30;;;;;;;39.83;21.98;;;;;;;21.64;100.00;101215.56;4970175;28;20578;-64
2021/09/10 08:03:56;;;;;;;39.40;20.67;;;;;;;21.58;100.00;101211.09;4977778;28;20058;-64
2021/09/10 08:06:23;;;;;;;37.47;21.60;;;;;;;21.37;100.00;101216.66;4969349;28;20054;-64
2021/09/10 08:08:54;;;;;;;39.40;21.65;;;;;;;21.40;100.00;101221.53;4977168;28;20049;-64
2021/09/10 08:11:21;;;;;;;40.42;21.00;;;;;;;21.30;100.00;101221.97;4971053;28;20078;-64
2021/09/10 08:13:47;;;;;;;40.50;21.83;;;;;;;21.39;100.00;101220.72;4977377;28;20530;-64
2021/09/10 08:16:14;;;;;;;38.85;19.45;;;;;;;21.40;100.00;101222.34;4979011;28;20086;-64
2021/09/10 08:18:40;;;;;;;34.75;20.05;;;;;;;21.56;100.00;101231.81;4974667;28;20101;-64
2021/09/10 08:21:07;;;;;;;34.25;19.55;;;;;;;21.55;100.00;101232.84;4978240;28;20065;-64
2021/09/10 08:23:34;;;;;;;34.97;18.30;;;;;;;21.60;100.00;101238.38;4973888;28;20046;-64
2021/09/10 08:26:01;;;;;;;32.88;19.42;;;;;;;21.58;100.00;101231.59;4977488;28;20153;-64
2021/09/10 08:28:28;;;;;;;33.80;19.02;;;;;;;21.57;100.00;101230.78;4974751;28;20077;-64
2021/09/10 08:30:55;;;;;;;32.35;18.13;;;;;;;22.09;99.87;101230.78;4973659;28;20046;-64
2021/09/10 08:33:22;;;;;;;33.03;18.10;;;;;;;22.36;95.94;101238.69;4980743;28;20141;-63
2021/09/10 08:35:48;;;;;;;31.10;17.60;;;;;;;21.97;98.41;101235.97;4974916;28;20059;-63
2021/09/10 08:38:15;;;;;;;34.20;18.27;;;;;;;21.76;100.00;101242.44;4982963;28;20133;-63
2021/09/10 08:40:45;;;;;;;23.42;16.50;;;;;;;21.68;100.00;101245.34;4965948;28;20144;-63
2021/09/10 08:43:12;;;;;;;33.85;17.70;;;;;;;21.95;99.50;101245.25;4973877;28;20058;-64
2021/09/10 08:45:38;;;;;;;24.23;16.30;;;;;;;22.23;97.00;101245.72;4980649;28;20448;-64
2021/09/10 08:48:05;;;;;;;23.15;14.80;;;;;;;22.28;96.33;101255.81;4977097;28;20112;-64
2021/09/10 08:50:32;;;;;;;26.23;15.57;;;;;;;21.92;97.80;101244.63;4979359;28;20054;-64
2021/09/10 08:52:58;;;;;;;26.38;16.25;;;;;;;21.94;98.28;101251.63;4973777;28;20086;-65
2021/09/10 08:55:25;;;;;;;24.00;15.38;;;;;;;21.94;98.73;101243.63;4969481;28;20157;-64
2021/09/10 08:57:53;;;;;;;29.80;16.17;;;;;;;22.03;98.44;101247.66;4976952;28;20149;-64
2021/09/10 09:00:46;;;;;;;22.80;15.52;;;;;;;21.97;98.13;101249.31;4979435;28;20093;-64
2021/09/10 09:03:13;;;;;;;24.77;15.00;;;;;;;22.21;96.16;101246.97;4973489;28;20050;-64
2021/09/10 09:05:39;;;;;;;24.10;15.82;;;;;;;22.35;95.58;101250.44;4977503;28;20050;-64
2021/09/10 09:08:18;;;;;;;25.75;15.35;;;;;;;22.30;95.10;101241.19;4979086;28;20054;-64
2021/09/10 09:11:07;;;;;;;24.63;16.48;;;;;;;22.21;95.82;101255.81;4966505;28;20050;-64
2021/09/10 09:13:39;;;;;;;25.40;15.82;;;;;;;22.31;95.75;101252.72;4984965;28;20165;-64
2021/09/10 09:16:19;;;;;;;24.35;13.77;;;;;;;22.63;94.05;101244.72;4971927;28;20140;-64
2021/09/10 09:18:52;;;;;;;25.88;15.35;;;;;;;22.61;93.55;101247.59;4984688;28;20052;-64
2021/09/10 09:21:25;;;;;;;27.45;14.38;;;;;;;22.40;95.23;101251.41;4965574;28;20918;-64
2021/09/10 09:23:55;;;;;;;22.80;14.07;;;;;;;22.42;96.26;101248.53;4976006;28;20050;-64
2021/09/10 09:26:25;;;;;;;20.13;14.13;;;;;;;22.59;94.85;101247.00;4971367;28;20081;-63
2021/09/10 09:29:02;;;;;;;23.85;14.40;;;;;;;22.71;92.28;101249.78;4981925;28;20082;-64
2021/09/10 09:31:29;;;;;;;23.88;14.43;;;;;;;22.88;91.66;101248.22;4968547;28;20137;-64
2021/09/10 09:33:56;;;;;;;22.23;13.50;;;;;;;23.13;90.96;101250.13;4982738;28;20355;-64
2021/09/10 09:36:22;;;;;;;21.83;14.05;;;;;;;23.23;90.19;101254.97;4972126;28;20094;-64
2021/09/10 09:38:49;;;;;;;20.50;13.20;;;;;;;23.41;86.40;101256.84;4974703;28;20142;-64
2021/09/10 09:41:19;;;;;;;18.52;13.02;;;;;;;23.42;86.56;101259.31;4977178;28;20082;-64
2021/09/10 09:43:49;;;;;;;16.95;10.85;;;;;;;23.59;87.08;101264.09;4974672;28;20526;-64
2021/09/10 09:46:18;;;;;;;17.88;11.57;;;;;;;23.65;86.69;101261.31;4976077;28;20142;-64
2021/09/10 09:48:48;;;;;;;18.30;11.13;;;;;;;23.53;86.21;101263.09;4972362;28;20049;-64
2021/09/10 09:51:17;;;;;;;19.25;11.43;;;;;;;23.73;86.42;101264.75;4972194;28;20878;-64
2021/09/10 09:53:44;;;;;;;16.52;11.02;;;;;;;23.85;85.57;101260.31;4979900;28;20074;-64
2021/09/10 09:56:11;;;;;;;15.60;10.50;;;;;;;24.41;82.56;101269.09;4970867;28;20129;-64
2021/09/10 09:58:41;;;;;;;15.53;9.20;;;;;;;24.57;80.74;101268.47;4977852;28;20141;-64
2021/09/10 10:01:10;;;;;;;12.15;8.88;;;;;;;24.40;81.09;101267.44;4967093;28;21483;-64
2021/09/10 10:03:40;;;;;;;16.15;9.48;;;;;;;24.89;79.87;101268.19;4974723;28;20144;-64
2021/09/10 10:06:13;;;;;;;15.27;10.57;;;;;;;24.94;80.07;101265.66;4966215;28;20165;-64
2021/09/10 10:08:55;;;;;;;16.35;10.35;;;;;;;25.02;79.80;101270.66;4979706;28;20101;-64
2021/09/10 10:11:24;;;;;;;19.95;9.98;;;;;;;24.90;78.65;101272.53;4972090;28;20054;-64
2021/09/10 10:13:56;;;;;;;15.68;9.13;;;;;;;24.87;76.25;101272.97;4979002;28;20082;-64
2021/09/10 10:16:40;;;;;;;14.85;9.77;;;;;;;24.94;77.08;101283.63;4977775;28;20046;-64
2021/09/10 10:19:33;;;;;;;16.20;9.60;;;;;;;24.94;76.08;101280.94;4973127;28;20680;-64
2021/09/10 10:22:02;;;;;;;14.38;8.68;;;;;;;24.84;77.68;101278.81;4974950;28;20050;-64
2021/09/10 10:24:52;;;;;;;10.77;7.85;;;;;;;24.74;79.25;101283.94;4969671;28;20115;-63
2021/09/10 10:27:35;;;;;;;14.15;9.35;;;;;;;24.85;76.70;101281.28;4974231;28;25060;-64
2021/09/10 10:30:04;;;;;;;12.52;9.27;;;;;;;24.72;77.95;101278.78;4969960;28;20858;-64
2021/09/10 10:32:41;;;;;;;13.20;9.15;;;;;;;24.80;77.91;101283.00;4970873;28;20133;-63
2021/09/10 10:35:29;;;;;;;12.52;8.55;;;;;;;24.89;78.25;101273.56;4973673;28;20470;-64
2021/09/10 10:38:02;;;;;;;13.73;8.48;;;;;;;24.96;78.40;101274.28;4978007;28;20820;-64
2021/09/10 10:40:30;;;;;;;12.80;8.82;;;;;;;25.20;77.23;101271.63;4972307;28;20086;-64
2021/09/10 10:43:07;;;;;;;11.05;7.93;;;;;;;25.18;77.83;101266.47;4977822;28;20498;-64
2021/09/10 10:45:42;;;;;;;13.70;8.82;;;;;;;25.34;76.06;101270.34;4969365;28;20137;-64
2021/09/10 10:48:27;;;;;;;12.48;8.00;;;;;;;25.53;74.96;101262.19;4971550;28;20065;-64
2021/09/10 10:51:20;;;;;;;15.05;8.05;;;;;;;25.79;74.97;101260.84;4974958;28;20046;-64
2021/09/10 10:53:47;;;;;;;14.13;8.18;;;;;;;25.73;73.06;101254.53;4978573;28;20050;-64
2021/09/10 10:56:26;;;;;;;13.73;8.55;;;;;;;25.75;73.78;101257.81;4977372;28;20153;-64
2021/09/10 10:59:11;;;;;;;11.55;7.95;;;;;;;25.65;73.31;101247.66;4967016;28;20173;-64
2021/09/10 11:02:15;;;;;;;11.65;8.48;;;;;;;25.75;73.48;101251.63;4975965;28;20097;-64
2021/09/10 11:04:47;;;;;;;12.65;8.00;;;;;;;25.57;74.09;101256.09;4971982;28;20496;-64
2021/09/10 11:07:21;;;;;;;14.38;8.32;;;;;;;25.61;73.90;101253.75;4976082;28;20109;-64
2021/09/10 11:10:05;;;;;;;12.38;9.00;;;;;;;25.35;74.97;101249.72;4973207;28;20405;-64
2021/09/10 11:12:33;;;;;;;16.17;8.48;;;;;;;25.58;74.92;101246.16;4974344;28;20811;-64